sensor_id;sensor_type;location;lat;lon;timestamp;temperature;humidity
13328;DHT22;6733;51.044;3.746;2023-01-26T00:00:49;3.80;99.90
13328;DHT22;6733;51.044;3.746;2023-01-26T00:03:15;3.80;99.90
13328;DHT22;6733;51.044;3.746;2023-01-26T00:05:41;3.80;99.90
13328;DHT22;6733;51.044;3.746;2023-01-26T00:08:08;3.80;99.90
13328;DHT22;6733;51.044;3.746;2023-01-26T00:10:39;3.80;99.90
13328;DHT22;6733;51.044;3.746;2023-01-26T00:13:09;3.70;99.90
13328;DHT22;6733;51.044;3.746;2023-01-26T00:15:35;3.80;99.90
13328;DHT22;6733;51.044;3.746;2023-01-26T00:18:02;3.80;99.90
13328;DHT22;6733;51.044;3.746;2023-01-26T00:20:29;3.80;99.90
13328;DHT22;6733;51.044;3.746;2023-01-26T00:22:55;3.80;99.90
13328;DHT22;6733;51.044;3.746;2023-01-26T00:25:21;3.80;99.90
13328;DHT22;6733;51.044;3.746;2023-01-26T00:27:48;3.90;99.90
13328;DHT22;6733;51.044;3.746;2023-01-26T00:30:15;3.90;99.90
13328;DHT22;6733;51.044;3.746;2023-01-26T00:32:42;3.90;99.90
13328;DHT22;6733;51.044;3.746;2023-01-26T00:35:08;3.90;99.90
13328;DHT22;6733;51.044;3.746;2023-01-26T00:37:34;3.90;99.90
13328;DHT22;6733;51.044;3.746;2023-01-26T00:40:00;3.90;99.90
13328;DHT22;6733;51.044;3.746;2023-01-26T00:42:27;3.90;99.90
13328;DHT22;6733;51.044;3.746;2023-01-26T00:44:53;3.90;99.90
13328;DHT22;6733;51.044;3.746;2023-01-26T00:47:19;3.90;99.90
13328;DHT22;6733;51.044;3.746;2023-01-26T00:49:45;3.90;99.90
13328;DHT22;6733;51.044;3.746;2023-01-26T00:52:12;3.90;99.90
13328;DHT22;6733;51.044;3.746;2023-01-26T00:54:38;4.00;99.90
13328;DHT22;6733;51.044;3.746;2023-01-26T00:57:04;3.90;99.90
13328;DHT22;6733;51.044;3.746;2023-01-26T00:59:30;4.00;99.90
13328;DHT22;6733;51.044;3.746;2023-01-26T01:01:58;4.00;99.90
13328;DHT22;6733;51.044;3.746;2023-01-26T01:04:24;4.00;99.90
13328;DHT22;6733;51.044;3.746;2023-01-26T01:06:50;4.00;99.90
13328;DHT22;6733;51.044;3.746;2023-01-26T01:09:17;4.00;99.90
13328;DHT22;6733;51.044;3.746;2023-01-26T01:11:43;4.00;99.90
13328;DHT22;6733;51.044;3.746;2023-01-26T01:14:11;4.00;99.90
13328;DHT22;6733;51.044;3.746;2023-01-26T01:16:39;4.00;99.90
13328;DHT22;6733;51.044;3.746;2023-01-26T01:19:05;4.00;99.90
13328;DHT22;6733;51.044;3.746;2023-01-26T01:21:32;4.00;99.90
13328;DHT22;6733;51.044;3.746;2023-01-26T01:23:58;4.00;99.90
13328;DHT22;6733;51.044;3.746;2023-01-26T01:26:25;4.00;99.90
13328;DHT22;6733;51.044;3.746;2023-01-26T01:28:56;4.00;99.90
13328;DHT22;6733;51.044;3.746;2023-01-26T01:31:23;4.00;99.90
13328;DHT22;6733;51.044;3.746;2023-01-26T01:33:53;4.00;99.90
13328;DHT22;6733;51.044;3.746;2023-01-26T01:36:20;4.00;99.90
13328;DHT22;6733;51.044;3.746;2023-01-26T01:38:47;4.00;99.90
13328;DHT22;6733;51.044;3.746;2023-01-26T01:41:16;4.00;99.90
13328;DHT22;6733;51.044;3.746;2023-01-26T01:43:42;3.90;99.90
13328;DHT22;6733;51.044;3.746;2023-01-26T01:48:51;3.90;99.90
13328;DHT22;6733;51.044;3.746;2023-01-26T01:51:44;4.00;99.90
13328;DHT22;6733;51.044;3.746;2023-01-26T01:54:15;4.00;99.90
13328;DHT22;6733;51.044;3.746;2023-01-26T01:56:45;4.00;99.90
13328;DHT22;6733;51.044;3.746;2023-01-26T01:59:13;4.00;99.90
13328;DHT22;6733;51.044;3.746;2023-01-26T02:01:40;4.10;99.90
13328;DHT22;6733;51.044;3.746;2023-01-26T02:04:07;4.10;99.90
13328;DHT22;6733;51.044;3.746;2023-01-26T02:06:38;4.10;99.90
13328;DHT22;6733;51.044;3.746;2023-01-26T02:09:07;4.10;99.90
13328;DHT22;6733;51.044;3.746;2023-01-26T02:11:56;4.10;99.90
13328;DHT22;6733;51.044;3.746;2023-01-26T02:14:24;4.10;99.90
13328;DHT22;6733;51.044;3.746;2023-01-26T02:16:50;4.10;99.90
13328;DHT22;6733;51.044;3.746;2023-01-26T02:19:48;4.10;99.90
13328;DHT22;6733;51.044;3.746;2023-01-26T02:22:20;4.10;99.90
13328;DHT22;6733;51.044;3.746;2023-01-26T02:24:50;4.10;99.90
13328;DHT22;6733;51.044;3.746;2023-01-26T02:27:17;4.10;99.90
13328;DHT22;6733;51.044;3.746;2023-01-26T02:29:43;4.20;99.90
13328;DHT22;6733;51.044;3.746;2023-01-26T02:32:09;4.20;99.90
13328;DHT22;6733;51.044;3.746;2023-01-26T02:34:36;4.20;99.90
13328;DHT22;6733;51.044;3.746;2023-01-26T02:37:02;4.10;99.90
13328;DHT22;6733;51.044;3.746;2023-01-26T02:39:44;4.10;99.90
13328;DHT22;6733;51.044;3.746;2023-01-26T02:42:14;4.20;99.90
13328;DHT22;6733;51.044;3.746;2023-01-26T02:44:59;4.10;99.90
13328;DHT22;6733;51.044;3.746;2023-01-26T02:47:25;4.10;99.90
13328;DHT22;6733;51.044;3.746;2023-01-26T02:49:52;4.20;99.90
13328;DHT22;6733;51.044;3.746;2023-01-26T02:52:21;4.20;99.90
13328;DHT22;6733;51.044;3.746;2023-01-26T02:54:47;4.10;99.90
13328;DHT22;6733;51.044;3.746;2023-01-26T02:57:32;4.10;99.90
13328;DHT22;6733;51.044;3.746;2023-01-26T03:00:00;4.10;99.90
13328;DHT22;6733;51.044;3.746;2023-01-26T03:02:26;4.20;99.90
13328;DHT22;6733;51.044;3.746;2023-01-26T03:04:52;4.10;99.90
13328;DHT22;6733;51.044;3.746;2023-01-26T03:07:18;4.20;99.90
13328;DHT22;6733;51.044;3.746;2023-01-26T03:09:45;4.20;99.90
13328;DHT22;6733;51.044;3.746;2023-01-26T03:12:11;4.20;99.90
13328;DHT22;6733;51.044;3.746;2023-01-26T03:14:38;4.20;99.90
13328;DHT22;6733;51.044;3.746;2023-01-26T03:17:04;4.20;99.90
13328;DHT22;6733;51.044;3.746;2023-01-26T03:19:30;4.30;99.90
13328;DHT22;6733;51.044;3.746;2023-01-26T03:22:14;4.30;99.90
13328;DHT22;6733;51.044;3.746;2023-01-26T03:24:59;4.30;99.90
13328;DHT22;6733;51.044;3.746;2023-01-26T03:27:47;4.30;99.90
13328;DHT22;6733;51.044;3.746;2023-01-26T03:30:15;4.30;99.90
13328;DHT22;6733;51.044;3.746;2023-01-26T03:32:41;4.30;99.90
13328;DHT22;6733;51.044;3.746;2023-01-26T03:35:08;4.30;99.90
13328;DHT22;6733;51.044;3.746;2023-01-26T03:37:41;4.30;99.90
13328;DHT22;6733;51.044;3.746;2023-01-26T03:40:10;4.30;99.90
13328;DHT22;6733;51.044;3.746;2023-01-26T03:42:56;4.30;99.90
13328;DHT22;6733;51.044;3.746;2023-01-26T03:45:40;4.30;99.90
13328;DHT22;6733;51.044;3.746;2023-01-26T03:48:25;4.30;99.90
13328;DHT22;6733;51.044;3.746;2023-01-26T03:51:10;4.30;99.90
13328;DHT22;6733;51.044;3.746;2023-01-26T03:53:55;4.30;99.90
13328;DHT22;6733;51.044;3.746;2023-01-26T03:56:40;4.30;99.90
13328;DHT22;6733;51.044;3.746;2023-01-26T03:59:07;4.30;99.90
13328;DHT22;6733;51.044;3.746;2023-01-26T04:01:43;4.30;99.90
13328;DHT22;6733;51.044;3.746;2023-01-26T04:04:28;4.30;99.90
13328;DHT22;6733;51.044;3.746;2023-01-26T04:07:13;4.30;99.90
13328;DHT22;6733;51.044;3.746;2023-01-26T04:09:57;4.30;99.90
13328;DHT22;6733;51.044;3.746;2023-01-26T04:12:24;4.40;99.90
13328;DHT22;6733;51.044;3.746;2023-01-26T04:14:50;4.40;99.90
13328;DHT22;6733;51.044;3.746;2023-01-26T04:17:34;4.40;99.90
13328;DHT22;6733;51.044;3.746;2023-01-26T04:20:19;4.40;99.90
13328;DHT22;6733;51.044;3.746;2023-01-26T04:23:04;4.40;99.90
13328;DHT22;6733;51.044;3.746;2023-01-26T04:25:30;4.40;99.90
13328;DHT22;6733;51.044;3.746;2023-01-26T04:27:56;4.40;99.90
13328;DHT22;6733;51.044;3.746;2023-01-26T04:30:22;4.30;99.90
13328;DHT22;6733;51.044;3.746;2023-01-26T04:32:50;4.30;99.90
13328;DHT22;6733;51.044;3.746;2023-01-26T04:35:16;4.30;99.90
13328;DHT22;6733;51.044;3.746;2023-01-26T04:37:42;4.20;99.90
13328;DHT22;6733;51.044;3.746;2023-01-26T04:40:09;4.20;99.90
13328;DHT22;6733;51.044;3.746;2023-01-26T04:42:35;4.20;99.90
13328;DHT22;6733;51.044;3.746;2023-01-26T04:45:02;4.20;99.90
13328;DHT22;6733;51.044;3.746;2023-01-26T04:47:28;4.30;99.90
13328;DHT22;6733;51.044;3.746;2023-01-26T04:49:54;4.30;99.90
13328;DHT22;6733;51.044;3.746;2023-01-26T04:52:20;4.30;99.90
13328;DHT22;6733;51.044;3.746;2023-01-26T04:54:46;4.10;99.90
13328;DHT22;6733;51.044;3.746;2023-01-26T04:57:12;4.10;99.90
13328;DHT22;6733;51.044;3.746;2023-01-26T04:59:39;4.00;99.90
13328;DHT22;6733;51.044;3.746;2023-01-26T05:02:05;4.10;99.90
13328;DHT22;6733;51.044;3.746;2023-01-26T05:04:31;4.10;99.90
13328;DHT22;6733;51.044;3.746;2023-01-26T05:06:57;4.10;99.90
13328;DHT22;6733;51.044;3.746;2023-01-26T05:09:23;4.00;99.90
13328;DHT22;6733;51.044;3.746;2023-01-26T05:11:49;4.10;99.90
13328;DHT22;6733;51.044;3.746;2023-01-26T05:14:16;4.10;99.90
13328;DHT22;6733;51.044;3.746;2023-01-26T05:16:42;4.10;99.90
13328;DHT22;6733;51.044;3.746;2023-01-26T05:19:08;4.10;99.90
13328;DHT22;6733;51.044;3.746;2023-01-26T05:21:34;4.00;99.90
13328;DHT22;6733;51.044;3.746;2023-01-26T05:24:00;4.00;99.90
13328;DHT22;6733;51.044;3.746;2023-01-26T05:26:26;4.10;99.90
13328;DHT22;6733;51.044;3.746;2023-01-26T05:28:52;4.10;99.90
13328;DHT22;6733;51.044;3.746;2023-01-26T05:31:18;4.10;99.90
13328;DHT22;6733;51.044;3.746;2023-01-26T05:33:45;4.20;99.90
13328;DHT22;6733;51.044;3.746;2023-01-26T05:36:11;4.20;99.90
13328;DHT22;6733;51.044;3.746;2023-01-26T05:38:37;4.30;99.90
13328;DHT22;6733;51.044;3.746;2023-01-26T05:41:05;4.30;99.90
13328;DHT22;6733;51.044;3.746;2023-01-26T05:43:31;4.30;99.90
13328;DHT22;6733;51.044;3.746;2023-01-26T05:45:58;4.40;99.90
13328;DHT22;6733;51.044;3.746;2023-01-26T05:48:24;4.40;99.90
13328;DHT22;6733;51.044;3.746;2023-01-26T05:50:50;4.40;99.90
13328;DHT22;6733;51.044;3.746;2023-01-26T05:53:16;4.40;99.90
13328;DHT22;6733;51.044;3.746;2023-01-26T05:55:42;4.40;99.90
13328;DHT22;6733;51.044;3.746;2023-01-26T05:58:09;4.40;99.90
13328;DHT22;6733;51.044;3.746;2023-01-26T06:00:35;4.40;99.90
13328;DHT22;6733;51.044;3.746;2023-01-26T06:03:01;4.50;99.90
13328;DHT22;6733;51.044;3.746;2023-01-26T06:05:27;4.50;99.90
13328;DHT22;6733;51.044;3.746;2023-01-26T06:07:53;4.50;99.90
13328;DHT22;6733;51.044;3.746;2023-01-26T06:10:19;4.50;99.90
13328;DHT22;6733;51.044;3.746;2023-01-26T06:12:45;4.50;99.90
13328;DHT22;6733;51.044;3.746;2023-01-26T06:15:11;4.50;99.90
13328;DHT22;6733;51.044;3.746;2023-01-26T06:17:38;4.50;99.90
13328;DHT22;6733;51.044;3.746;2023-01-26T06:20:05;4.50;99.90
13328;DHT22;6733;51.044;3.746;2023-01-26T06:22:31;4.50;99.90
13328;DHT22;6733;51.044;3.746;2023-01-26T06:24:57;4.60;99.90
13328;DHT22;6733;51.044;3.746;2023-01-26T06:27:23;4.60;99.90
13328;DHT22;6733;51.044;3.746;2023-01-26T06:29:50;4.60;99.90
13328;DHT22;6733;51.044;3.746;2023-01-26T06:32:16;4.60;99.90
13328;DHT22;6733;51.044;3.746;2023-01-26T06:34:42;4.70;99.90
13328;DHT22;6733;51.044;3.746;2023-01-26T06:37:09;4.70;99.90
13328;DHT22;6733;51.044;3.746;2023-01-26T06:39:35;4.70;99.90
13328;DHT22;6733;51.044;3.746;2023-01-26T06:42:03;4.70;99.90
13328;DHT22;6733;51.044;3.746;2023-01-26T06:44:29;4.70;99.90
13328;DHT22;6733;51.044;3.746;2023-01-26T06:46:55;4.80;99.90
13328;DHT22;6733;51.044;3.746;2023-01-26T06:49:21;4.70;99.90
13328;DHT22;6733;51.044;3.746;2023-01-26T06:54:52;4.80;99.90
13328;DHT22;6733;51.044;3.746;2023-01-26T06:57:19;4.80;99.90
13328;DHT22;6733;51.044;3.746;2023-01-26T06:59:45;4.80;99.90
13328;DHT22;6733;51.044;3.746;2023-01-26T07:02:19;4.90;99.90
13328;DHT22;6733;51.044;3.746;2023-01-26T07:04:46;4.90;99.90
13328;DHT22;6733;51.044;3.746;2023-01-26T07:07:13;4.90;99.90
13328;DHT22;6733;51.044;3.746;2023-01-26T07:09:39;5.00;99.90
13328;DHT22;6733;51.044;3.746;2023-01-26T07:12:06;5.00;99.90
13328;DHT22;6733;51.044;3.746;2023-01-26T07:14:34;5.00;99.90
13328;DHT22;6733;51.044;3.746;2023-01-26T07:17:01;5.00;99.90
13328;DHT22;6733;51.044;3.746;2023-01-26T07:19:28;5.00;99.90
13328;DHT22;6733;51.044;3.746;2023-01-26T07:21:56;5.10;99.90
13328;DHT22;6733;51.044;3.746;2023-01-26T07:24:23;5.10;99.90
13328;DHT22;6733;51.044;3.746;2023-01-26T07:26:50;5.10;99.90
13328;DHT22;6733;51.044;3.746;2023-01-26T07:29:17;5.20;99.90
13328;DHT22;6733;51.044;3.746;2023-01-26T07:31:44;5.20;99.90
13328;DHT22;6733;51.044;3.746;2023-01-26T07:34:11;5.20;99.90
13328;DHT22;6733;51.044;3.746;2023-01-26T07:36:38;5.20;99.90
13328;DHT22;6733;51.044;3.746;2023-01-26T07:39:05;5.20;99.90
13328;DHT22;6733;51.044;3.746;2023-01-26T07:41:31;5.20;99.90
13328;DHT22;6733;51.044;3.746;2023-01-26T07:44:01;5.30;99.90
13328;DHT22;6733;51.044;3.746;2023-01-26T07:46:27;5.30;99.90
13328;DHT22;6733;51.044;3.746;2023-01-26T07:48:54;5.30;99.90
13328;DHT22;6733;51.044;3.746;2023-01-26T07:51:20;5.30;99.90
13328;DHT22;6733;51.044;3.746;2023-01-26T07:53:47;5.30;99.90
13328;DHT22;6733;51.044;3.746;2023-01-26T07:56:16;5.40;99.90
13328;DHT22;6733;51.044;3.746;2023-01-26T07:58:50;5.40;99.90
13328;DHT22;6733;51.044;3.746;2023-01-26T08:01:17;5.40;99.90
13328;DHT22;6733;51.044;3.746;2023-01-26T08:03:44;5.10;99.90
13328;DHT22;6733;51.044;3.746;2023-01-26T08:06:12;4.80;99.90
13328;DHT22;6733;51.044;3.746;2023-01-26T08:08:39;4.60;99.90
13328;DHT22;6733;51.044;3.746;2023-01-26T08:11:06;4.50;99.90
13328;DHT22;6733;51.044;3.746;2023-01-26T08:13:33;4.40;99.90
13328;DHT22;6733;51.044;3.746;2023-01-26T08:16:07;4.40;99.90
13328;DHT22;6733;51.044;3.746;2023-01-26T08:18:38;4.40;99.90
13328;DHT22;6733;51.044;3.746;2023-01-26T08:21:04;4.40;99.90
13328;DHT22;6733;51.044;3.746;2023-01-26T08:23:30;4.40;99.90
13328;DHT22;6733;51.044;3.746;2023-01-26T08:26:06;4.40;99.90
13328;DHT22;6733;51.044;3.746;2023-01-26T08:28:33;4.50;99.90
13328;DHT22;6733;51.044;3.746;2023-01-26T08:31:24;4.50;99.90
13328;DHT22;6733;51.044;3.746;2023-01-26T08:33:51;4.60;99.90
13328;DHT22;6733;51.044;3.746;2023-01-26T08:36:18;4.70;99.90
13328;DHT22;6733;51.044;3.746;2023-01-26T08:38:45;4.60;99.90
13328;DHT22;6733;51.044;3.746;2023-01-26T08:41:11;4.70;99.90
13328;DHT22;6733;51.044;3.746;2023-01-26T08:43:38;4.70;99.90
13328;DHT22;6733;51.044;3.746;2023-01-26T08:53:41;4.90;99.90
13328;DHT22;6733;51.044;3.746;2023-01-26T08:56:09;5.00;99.90
13328;DHT22;6733;51.044;3.746;2023-01-26T08:58:36;5.10;99.90
13328;DHT22;6733;51.044;3.746;2023-01-26T09:01:04;5.10;99.90
13328;DHT22;6733;51.044;3.746;2023-01-26T09:03:30;5.20;99.90
13328;DHT22;6733;51.044;3.746;2023-01-26T09:05:59;5.30;99.90
13328;DHT22;6733;51.044;3.746;2023-01-26T09:08:26;5.40;99.90
13328;DHT22;6733;51.044;3.746;2023-01-26T09:10:52;5.50;99.90
13328;DHT22;6733;51.044;3.746;2023-01-26T09:13:18;5.50;99.90
13328;DHT22;6733;51.044;3.746;2023-01-26T09:15:44;5.60;99.90
13328;DHT22;6733;51.044;3.746;2023-01-26T09:18:11;5.70;99.90
13328;DHT22;6733;51.044;3.746;2023-01-26T09:20:38;5.70;99.90
13328;DHT22;6733;51.044;3.746;2023-01-26T09:23:04;5.80;99.90
13328;DHT22;6733;51.044;3.746;2023-01-26T09:25:30;5.90;99.90
13328;DHT22;6733;51.044;3.746;2023-01-26T09:27:57;5.90;99.90
13328;DHT22;6733;51.044;3.746;2023-01-26T09:30:23;6.00;99.90
13328;DHT22;6733;51.044;3.746;2023-01-26T09:32:59;6.10;99.90
13328;DHT22;6733;51.044;3.746;2023-01-26T09:35:27;6.10;99.90
13328;DHT22;6733;51.044;3.746;2023-01-26T09:37:53;6.20;99.90
13328;DHT22;6733;51.044;3.746;2023-01-26T09:46:35;6.40;99.90
13328;DHT22;6733;51.044;3.746;2023-01-26T09:49:00;6.50;99.90
13328;DHT22;6733;51.044;3.746;2023-01-26T09:51:48;6.50;99.90
13328;DHT22;6733;51.044;3.746;2023-01-26T09:54:39;6.60;99.90
13328;DHT22;6733;51.044;3.746;2023-01-26T09:57:20;6.60;99.90
13328;DHT22;6733;51.044;3.746;2023-01-26T09:59:59;6.60;99.90
13328;DHT22;6733;51.044;3.746;2023-01-26T10:05:39;6.80;99.90
13328;DHT22;6733;51.044;3.746;2023-01-26T10:08:14;6.90;99.90
13328;DHT22;6733;51.044;3.746;2023-01-26T10:10:55;6.90;99.90
13328;DHT22;6733;51.044;3.746;2023-01-26T10:13:23;6.90;99.90
13328;DHT22;6733;51.044;3.746;2023-01-26T10:15:53;7.00;99.90
13328;DHT22;6733;51.044;3.746;2023-01-26T10:18:29;7.10;99.90
13328;DHT22;6733;51.044;3.746;2023-01-26T10:20:57;7.20;99.90
13328;DHT22;6733;51.044;3.746;2023-01-26T10:23:33;7.20;99.90
13328;DHT22;6733;51.044;3.746;2023-01-26T10:26:15;7.40;99.90
13328;DHT22;6733;51.044;3.746;2023-01-26T10:28:43;7.40;99.90
13328;DHT22;6733;51.044;3.746;2023-01-26T10:31:32;7.40;99.90
13328;DHT22;6733;51.044;3.746;2023-01-26T10:34:13;7.40;99.90
13328;DHT22;6733;51.044;3.746;2023-01-26T10:36:43;7.30;99.90
13328;DHT22;6733;51.044;3.746;2023-01-26T10:39:12;7.30;99.90
13328;DHT22;6733;51.044;3.746;2023-01-26T10:41:39;7.30;99.90
13328;DHT22;6733;51.044;3.746;2023-01-26T10:46:40;7.30;99.90
13328;DHT22;6733;51.044;3.746;2023-01-26T10:51:38;7.10;99.90
13328;DHT22;6733;51.044;3.746;2023-01-26T10:56:52;7.00;99.90
13328;DHT22;6733;51.044;3.746;2023-01-26T11:02:16;7.00;99.90
13328;DHT22;6733;51.044;3.746;2023-01-26T11:07:35;7.00;99.90
13328;DHT22;6733;51.044;3.746;2023-01-26T11:12:47;7.10;99.90
13328;DHT22;6733;51.044;3.746;2023-01-26T11:15:24;7.10;99.90
13328;DHT22;6733;51.044;3.746;2023-01-26T11:18:00;7.20;99.90
13328;DHT22;6733;51.044;3.746;2023-01-26T11:29:17;7.40;99.90
13328;DHT22;6733;51.044;3.746;2023-01-26T11:37:44;7.50;99.90
13328;DHT22;6733;51.044;3.746;2023-01-26T11:48:50;7.80;99.90
13328;DHT22;6733;51.044;3.746;2023-01-26T11:51:38;7.80;99.90
13328;DHT22;6733;51.044;3.746;2023-01-26T11:54:38;7.80;99.90
13328;DHT22;6733;51.044;3.746;2023-01-26T12:02:39;7.90;99.90
13328;DHT22;6733;51.044;3.746;2023-01-26T12:05:21;7.80;99.90
13328;DHT22;6733;51.044;3.746;2023-01-26T12:08:02;7.80;99.90
13328;DHT22;6733;51.044;3.746;2023-01-26T12:10:34;7.70;99.90
13328;DHT22;6733;51.044;3.746;2023-01-26T12:13:10;7.80;99.90
13328;DHT22;6733;51.044;3.746;2023-01-26T12:15:43;7.90;99.90
13328;DHT22;6733;51.044;3.746;2023-01-26T12:18:28;8.20;99.90
13328;DHT22;6733;51.044;3.746;2023-01-26T12:21:02;8.40;99.90
13328;DHT22;6733;51.044;3.746;2023-01-26T12:23:58;8.40;99.90
13328;DHT22;6733;51.044;3.746;2023-01-26T12:26:24;8.60;99.90
13328;DHT22;6733;51.044;3.746;2023-01-26T12:33:53;8.80;99.90
13328;DHT22;6733;51.044;3.746;2023-01-26T12:36:46;8.90;99.90
13328;DHT22;6733;51.044;3.746;2023-01-26T12:44:43;8.50;99.90
13328;DHT22;6733;51.044;3.746;2023-01-26T12:50:03;8.30;99.90
13328;DHT22;6733;51.044;3.746;2023-01-26T12:55:17;8.20;99.90
13328;DHT22;6733;51.044;3.746;2023-01-26T12:57:59;8.30;99.90
13328;DHT22;6733;51.044;3.746;2023-01-26T13:00:31;8.20;99.90
13328;DHT22;6733;51.044;3.746;2023-01-26T13:03:01;8.10;99.90
13328;DHT22;6733;51.044;3.746;2023-01-26T13:05:32;8.20;99.90
13328;DHT22;6733;51.044;3.746;2023-01-26T13:11:06;8.40;99.90
13328;DHT22;6733;51.044;3.746;2023-01-26T13:13:52;8.40;99.90
13328;DHT22;6733;51.044;3.746;2023-01-26T13:18:53;8.60;99.90
13328;DHT22;6733;51.044;3.746;2023-01-26T13:26:57;8.40;99.90
13328;DHT22;6733;51.044;3.746;2023-01-26T13:32:49;8.20;99.90
13328;DHT22;6733;51.044;3.746;2023-01-26T13:34:55;8.30;99.90
13328;DHT22;6733;51.044;3.746;2023-01-26T13:37:44;8.30;99.90
13328;DHT22;6733;51.044;3.746;2023-01-26T13:43:05;8.20;99.90
13328;DHT22;6733;51.044;3.746;2023-01-26T13:45:57;8.30;99.90
13328;DHT22;6733;51.044;3.746;2023-01-26T13:48:44;8.50;99.90
13328;DHT22;6733;51.044;3.746;2023-01-26T13:51:21;8.50;99.90
13328;DHT22;6733;51.044;3.746;2023-01-26T13:54:14;8.50;99.90
13328;DHT22;6733;51.044;3.746;2023-01-26T13:59:28;8.40;99.90
13328;DHT22;6733;51.044;3.746;2023-01-26T14:01:55;8.40;99.90
13328;DHT22;6733;51.044;3.746;2023-01-26T14:04:27;8.40;99.90
13328;DHT22;6733;51.044;3.746;2023-01-26T14:07:00;8.40;99.90
13328;DHT22;6733;51.044;3.746;2023-01-26T14:09:30;8.30;99.90
13328;DHT22;6733;51.044;3.746;2023-01-26T14:12:02;8.20;99.90
13328;DHT22;6733;51.044;3.746;2023-01-26T14:14:33;8.30;99.90
13328;DHT22;6733;51.044;3.746;2023-01-26T14:17:00;8.30;99.90
13328;DHT22;6733;51.044;3.746;2023-01-26T14:19:30;8.30;99.90
13328;DHT22;6733;51.044;3.746;2023-01-26T14:21:59;8.40;99.90
13328;DHT22;6733;51.044;3.746;2023-01-26T14:24:36;8.40;99.90
13328;DHT22;6733;51.044;3.746;2023-01-26T14:27:05;8.30;99.90
13328;DHT22;6733;51.044;3.746;2023-01-26T14:29:42;8.30;99.90
13328;DHT22;6733;51.044;3.746;2023-01-26T14:32:14;8.30;99.90
13328;DHT22;6733;51.044;3.746;2023-01-26T14:34:51;8.20;99.90
13328;DHT22;6733;51.044;3.746;2023-01-26T14:37:18;8.30;99.90
13328;DHT22;6733;51.044;3.746;2023-01-26T14:39:44;8.30;99.90
13328;DHT22;6733;51.044;3.746;2023-01-26T14:42:14;8.30;99.90
13328;DHT22;6733;51.044;3.746;2023-01-26T14:44:41;8.30;99.90
13328;DHT22;6733;51.044;3.746;2023-01-26T14:47:24;8.20;99.90
13328;DHT22;6733;51.044;3.746;2023-01-26T14:50:06;8.10;99.90
13328;DHT22;6733;51.044;3.746;2023-01-26T14:52:37;8.20;99.90
13328;DHT22;6733;51.044;3.746;2023-01-26T14:57:43;9.20;99.90
13328;DHT22;6733;51.044;3.746;2023-01-26T15:00:27;9.70;99.90
13328;DHT22;6733;51.044;3.746;2023-01-26T15:02:56;9.50;99.90
13328;DHT22;6733;51.044;3.746;2023-01-26T15:05:35;9.90;99.90
13328;DHT22;6733;51.044;3.746;2023-01-26T15:08:04;8.80;99.90
13328;DHT22;6733;51.044;3.746;2023-01-26T15:10:45;8.40;99.90
13328;DHT22;6733;51.044;3.746;2023-01-26T15:13:20;8.20;99.90
13328;DHT22;6733;51.044;3.746;2023-01-26T15:16:03;8.20;99.90
13328;DHT22;6733;51.044;3.746;2023-01-26T15:18:31;8.10;99.90
13328;DHT22;6733;51.044;3.746;2023-01-26T15:21:14;8.10;99.90
13328;DHT22;6733;51.044;3.746;2023-01-26T15:23:48;8.10;99.90
13328;DHT22;6733;51.044;3.746;2023-01-26T15:26:32;8.00;99.90
13328;DHT22;6733;51.044;3.746;2023-01-26T15:29:15;8.00;99.90
13328;DHT22;6733;51.044;3.746;2023-01-26T15:31:54;7.90;99.90
13328;DHT22;6733;51.044;3.746;2023-01-26T15:36:59;7.90;99.90
13328;DHT22;6733;51.044;3.746;2023-01-26T15:39:26;7.90;99.90
13328;DHT22;6733;51.044;3.746;2023-01-26T15:42:12;7.90;99.90
13328;DHT22;6733;51.044;3.746;2023-01-26T15:44:39;7.80;99.90
13328;DHT22;6733;51.044;3.746;2023-01-26T15:47:09;7.90;99.90
13328;DHT22;6733;51.044;3.746;2023-01-26T15:49:37;7.80;99.90
13328;DHT22;6733;51.044;3.746;2023-01-26T15:52:14;7.80;99.90
13328;DHT22;6733;51.044;3.746;2023-01-26T15:54:40;7.80;99.90
13328;DHT22;6733;51.044;3.746;2023-01-26T15:57:09;7.70;99.90
13328;DHT22;6733;51.044;3.746;2023-01-26T15:59:36;7.70;99.90
13328;DHT22;6733;51.044;3.746;2023-01-26T16:02:02;7.70;99.90
13328;DHT22;6733;51.044;3.746;2023-01-26T16:04:29;7.70;99.90
13328;DHT22;6733;51.044;3.746;2023-01-26T16:06:55;7.70;99.90
13328;DHT22;6733;51.044;3.746;2023-01-26T16:09:21;7.60;99.90
13328;DHT22;6733;51.044;3.746;2023-01-26T16:11:50;7.60;99.90
13328;DHT22;6733;51.044;3.746;2023-01-26T16:14:16;7.60;99.90
13328;DHT22;6733;51.044;3.746;2023-01-26T16:16:43;7.60;99.90
13328;DHT22;6733;51.044;3.746;2023-01-26T16:19:09;7.60;99.90
13328;DHT22;6733;51.044;3.746;2023-01-26T16:21:36;7.60;99.90
13328;DHT22;6733;51.044;3.746;2023-01-26T16:24:04;7.60;99.90
13328;DHT22;6733;51.044;3.746;2023-01-26T16:26:31;7.60;99.90
13328;DHT22;6733;51.044;3.746;2023-01-26T16:28:57;7.60;99.90
13328;DHT22;6733;51.044;3.746;2023-01-26T16:31:29;7.60;99.90
13328;DHT22;6733;51.044;3.746;2023-01-26T16:33:56;7.50;99.90
13328;DHT22;6733;51.044;3.746;2023-01-26T16:36:23;7.50;99.90
13328;DHT22;6733;51.044;3.746;2023-01-26T16:38:49;7.40;99.90
13328;DHT22;6733;51.044;3.746;2023-01-26T16:41:26;7.40;99.90
13328;DHT22;6733;51.044;3.746;2023-01-26T16:43:55;7.40;99.90
13328;DHT22;6733;51.044;3.746;2023-01-26T16:46:21;7.30;99.90
13328;DHT22;6733;51.044;3.746;2023-01-26T16:48:48;7.30;99.90
13328;DHT22;6733;51.044;3.746;2023-01-26T16:51:23;7.30;99.90
13328;DHT22;6733;51.044;3.746;2023-01-26T16:53:52;7.40;99.90
13328;DHT22;6733;51.044;3.746;2023-01-26T16:56:19;7.50;99.90
13328;DHT22;6733;51.044;3.746;2023-01-26T16:58:45;7.50;99.90
13328;DHT22;6733;51.044;3.746;2023-01-26T17:01:16;7.60;99.90
13328;DHT22;6733;51.044;3.746;2023-01-26T17:03:44;7.60;99.90
13328;DHT22;6733;51.044;3.746;2023-01-26T17:06:10;7.60;99.90
13328;DHT22;6733;51.044;3.746;2023-01-26T17:08:38;7.70;99.90
13328;DHT22;6733;51.044;3.746;2023-01-26T17:11:04;7.70;99.90
13328;DHT22;6733;51.044;3.746;2023-01-26T17:13:30;7.70;99.90
13328;DHT22;6733;51.044;3.746;2023-01-26T17:15:57;7.80;99.90
13328;DHT22;6733;51.044;3.746;2023-01-26T17:18:24;7.80;99.90
13328;DHT22;6733;51.044;3.746;2023-01-26T17:20:50;7.80;99.90
13328;DHT22;6733;51.044;3.746;2023-01-26T17:23:16;7.90;99.90
13328;DHT22;6733;51.044;3.746;2023-01-26T17:25:42;7.90;99.90
13328;DHT22;6733;51.044;3.746;2023-01-26T17:28:09;7.90;99.90
13328;DHT22;6733;51.044;3.746;2023-01-26T17:30:36;7.90;99.90
13328;DHT22;6733;51.044;3.746;2023-01-26T17:33:02;7.90;99.90
13328;DHT22;6733;51.044;3.746;2023-01-26T17:35:28;7.90;99.90
13328;DHT22;6733;51.044;3.746;2023-01-26T17:37:54;7.90;99.90
13328;DHT22;6733;51.044;3.746;2023-01-26T17:40:20;7.90;99.90
13328;DHT22;6733;51.044;3.746;2023-01-26T17:42:46;8.00;99.90
13328;DHT22;6733;51.044;3.746;2023-01-26T17:45:12;8.00;99.90
13328;DHT22;6733;51.044;3.746;2023-01-26T17:47:38;8.00;99.90
13328;DHT22;6733;51.044;3.746;2023-01-26T17:50:05;8.00;99.90
13328;DHT22;6733;51.044;3.746;2023-01-26T17:52:31;7.90;99.90
13328;DHT22;6733;51.044;3.746;2023-01-26T17:55:00;8.00;99.90
13328;DHT22;6733;51.044;3.746;2023-01-26T17:57:28;8.00;99.90
13328;DHT22;6733;51.044;3.746;2023-01-26T17:59:54;8.00;99.90
13328;DHT22;6733;51.044;3.746;2023-01-26T18:02:20;8.00;99.90
13328;DHT22;6733;51.044;3.746;2023-01-26T18:04:46;7.90;99.90
13328;DHT22;6733;51.044;3.746;2023-01-26T18:07:13;7.90;99.90
13328;DHT22;6733;51.044;3.746;2023-01-26T18:09:39;7.80;99.90